Severy, Kansas
Current Conditions -  °F | °C
As of 11:35 AM on Wednesday 26 Nov 2014 (Local Time) from KEQA Reporting Station
Broken Clouds Broken Clouds  
Wind Chill: 37°   Ceiling: 4700
Heat Index: 46°   Visibility: 10mi
Dew Point: 25°   Wind: 29mph
Humidity: 43%   Direction: 310°NW
Pressure: 30.11"   Gusts: 35mph
Location:  37.62°N, 96.23°W
Report Text: KEQA 261735Z AUTO 31025G30KT 10SM BKN047 08/M04 A3011 RMK AO2
Loading
Personal Weather Stations






























Interactive Weather Map New forecast layout! Learn more

10-Day Weather Forecast

Advertisements
Track Severe Weather on mobile